Stad Amsterdam — PECA — position and weather

sailwx.info

Track history (hours):
 
Tides and Currents Weather Stations Pressure Air Temp Water Temp Dewpoint Dewpoint Depression Visibility Wind Speed Wind Dir Waves Ship Positions

Stad Amsterdam (Netherlands)

Ship's website: http://www.stadamsterdam.com/content/home/index.xml

Last reported at 2018-Jul-21 12:11 UTC. Time now 2018-Jul-22 07:06 UTC.
Position N 54°03' E 010°59'.

Length 76 m; beam 10 m.

Type: Sailing vessel. MMSI: 246494000.

Date/timePositionNaut miles runAvg speedWind from/ knotsBaromVisibWave heightAir tempDewpointWater temp
2018-Jul-21 12:11N 54°03' E 010°59'1 3.1
2018-Jul-21 11:51N 54°04' E 010°59'25 0.6
2018-Jul-19 21:01N 54°25' E 011°21'0 5.9
2018-Jul-19 21:00N 54°25' E 011°21'4 7.2
2018-Jul-19 20:30N 54°29' E 011°21'4 8.3
2018-Jul-19 20:00N 54°32' E 011°18'3 5.7
2018-Jul-19 19:30N 54°34' E 011°14'3 5.2
2018-Jul-19 19:00N 54°35' E 011°10'3 6.1
2018-Jul-19 18:30N 54°36' E 011°05'3 6.4
2018-Jul-19 18:00N 54°38' E 011°01'4 8.2
2018-Jul-19 17:30N 54°42' E 010°57'4 8.4
2018-Jul-19 17:00N 54°45' E 010°54'4 8.6
2018-Jul-19 16:30N 54°50' E 010°53'2 3.8
2018-Jul-19 16:00N 54°52' E 010°54'1 1.2
2018-Jul-19 15:30N 54°52' E 010°54'2 3.8
2018-Jul-19 15:00N 54°54' E 010°55'3 5.2
2018-Jul-19 14:30N 54°57' E 010°55'5 4.6
2018-Jul-19 13:30N 55°01' E 010°57'77 6.3
2018-Jul-19 01:14N 56°18' E 011°00'2 9.4
2018-Jul-19 00:59N 56°21' E 011°01'25 9.6
2018-Jul-18 22:25N 56°45' E 010°56'36 9.5
2018-Jul-18 18:41N 57°20' E 010°43'1811.2
2018-Jul-18 17:04N 57°38' E 010°44'111.9
2018-Jul-18 17:00N 57°39' E 010°44'611.1
2018-Jul-18 16:25N 57°45' E 010°44'3 6.8
2018-Jul-18 15:59N 57°46' E 010°39'6 7.8
2018-Jul-18 15:15N 57°46' E 010°28'3 6.7
2018-Jul-18 14:51N 57°46' E 010°23'2 5.6
2018-Jul-18 14:27N 57°45' E 010°19'8 5.8
2018-Jul-18 13:06N 57°44' E 010°05'65 3.3
2018-Jul-17 17:04N 57°17' E 008°14'0 1.5
2018-Jul-17 17:00N 57°17' E 008°14'1 0.9
2018-Jul-17 15:59N 57°16' E 008°15'1 1.1
2018-Jul-17 15:21N 57°16' E 008°17'179 4.5
2018-Jul-15 23:54N 54°19' E 007°34'2 4.0
2018-Jul-15 23:25N 54°17' E 007°34'2 3.8
2018-Jul-15 23:00N 54°16' E 007°35'2 3.5
2018-Jul-15 22:27N 54°14' E 007°35'2 4.4
2018-Jul-15 21:58N 54°12' E 007°36'2 5.0
2018-Jul-15 21:30N 54°09' E 007°37'3 5.3
2018-Jul-15 21:00N 54°07' E 007°39'3 6.0
2018-Jul-15 20:27N 54°05' E 007°43'3 6.5
2018-Jul-15 20:00N 54°04' E 007°48'3 6.4
2018-Jul-15 19:30N 54°03' E 007°53'4 7.2
2018-Jul-15 19:00N 54°02' E 007°59'4 8.4
2018-Jul-15 18:30N 54°01' E 008°06'5 9.7
2018-Jul-15 18:00N 54°01' E 008°14'5 9.6
2018-Jul-15 17:26N 53°60' E 008°23'7 9.9
2018-Jul-15 16:46N 53°58' E 008°34'3 9.6
2018-Jul-15 16:29N 53°57' E 008°38'4 8.3
2018-Jul-15 16:00N 53°54' E 008°42'4 7.2
2018-Jul-15 15:30N 53°51' E 008°46'3 6.3
2018-Jul-15 15:00N 53°50' E 008°51'3 6.1
2018-Jul-15 14:31N 53°51' E 008°56'3 5.1
2018-Jul-15 14:01N 53°51' E 009°00'3 5.8
2018-Jul-15 13:30N 53°53' E 009°05'3 5.6
2018-Jul-15 13:00N 53°53' E 009°10'2 4.6
2018-Jul-15 12:30N 53°53' E 009°14'3 5.1
2018-Jul-15 12:00N 53°52' E 009°18'3 5.5
2018-Jul-15 11:30N 53°50' E 009°21'3 6.5
2018-Jul-15 11:00N 53°47' E 009°23'4 8.3
2018-Jul-15 10:30N 53°44' E 009°27'4 9.0
2018-Jul-15 10:00N 53°40' E 009°31'5 9.1
2018-Jul-15 09:30N 53°36' E 009°35'4 8.9
2018-Jul-15 09:00N 53°34' E 009°42'4 9.0
2018-Jul-15 08:30N 53°33' E 009°49'5 9.0
2018-Jul-15 08:00N 53°33' E 009°57'1 2.3
2018-Jul-15 07:30N 53°33' E 009°59'0 0.0
2018-Jul-15 07:00N 53°33' E 009°59'0 0.0
2018-Jul-15 06:28N 53°33' E 009°59'0 0.0
2018-Jul-15 05:57N 53°33' E 009°59'0 0.0
2018-Jul-15 05:31N 53°33' E 009°59'0 0.0
2018-Jul-15 05:01N 53°33' E 009°59'0 0.0
2018-Jul-15 04:30N 53°33' E 009°59'0 0.0
2018-Jul-15 04:00N 53°33' E 009°59'0 0.0
2018-Jul-15 03:30N 53°33' E 009°59'0 0.0
2018-Jul-15 02:57N 53°33' E 009°59'0 0.0
2018-Jul-15 02:30N 53°33' E 009°59'0 0.0
2018-Jul-15 02:00N 53°33' E 009°59'0 0.0
2018-Jul-15 01:31N 53°33' E 009°59'0 0.0
2018-Jul-15 00:57N 53°33' E 009°59'0 0.0
2018-Jul-15 00:30N 53°33' E 009°59'0 0.0
2018-Jul-14 23:57N 53°33' E 009°59'0 0.0
2018-Jul-14 23:30N 53°33' E 009°59'0 0.0
2018-Jul-14 23:00N 53°33' E 009°59'0 0.0
2018-Jul-14 22:30N 53°33' E 009°59'0 0.0
2018-Jul-14 21:57N 53°33' E 009°59'0 0.0
2018-Jul-14 21:30N 53°33' E 009°59'0 0.0
2018-Jul-14 21:00N 53°33' E 009°59'0 0.0
2018-Jul-14 20:30N 53°33' E 009°59'0 0.0
2018-Jul-14 20:00N 53°33' E 009°59'0 0.0
2018-Jul-14 19:27N 53°33' E 009°59'0 0.0
2018-Jul-14 19:00N 53°33' E 009°59'0 0.0
2018-Jul-14 18:30N 53°33' E 009°59'0 0.0
2018-Jul-14 18:00N 53°33' E 009°59'0 0.0
2018-Jul-14 17:30N 53°33' E 009°59'0 0.0
2018-Jul-14 17:01N 53°33' E 009°59'0 0.0
2018-Jul-14 16:30N 53°33' E 009°59'0 0.0
2018-Jul-14 16:00N 53°33' E 009°59'0 0.0
2018-Jul-14 15:30N 53°33' E 009°59'0 0.0
2018-Jul-14 15:00N 53°33' E 009°59'0 0.0
2018-Jul-14 14:30N 53°33' E 009°59'0 0.0
2018-Jul-14 13:30N 53°33' E 009°59'0 0.0
2018-Jul-14 13:00N 53°33' E 009°59'0 0.0
2018-Jul-14 12:30N 53°33' E 009°59'0 0.0
2018-Jul-14 12:00N 53°33' E 009°59'0 0.0
2018-Jul-14 11:30N 53°33' E 009°59'0 0.0
2018-Jul-14 11:00N 53°33' E 009°59'0 0.0
2018-Jul-14 10:30N 53°33' E 009°59'0 0.0
2018-Jul-14 10:00N 53°33' E 009°59'0 0.0
2018-Jul-14 09:30N 53°33' E 009°59'0 0.0
2018-Jul-14 09:00N 53°33' E 009°59'0 0.0
2018-Jul-14 08:30N 53°33' E 009°59'0 0.0
2018-Jul-14 08:00N 53°33' E 009°59'0 0.0
2018-Jul-14 07:30N 53°33' E 009°59'0 0.0
2018-Jul-14 07:00N 53°33' E 009°59'0 0.0
2018-Jul-14 06:30N 53°33' E 009°59'0 0.0
2018-Jul-14 06:00N 53°33' E 009°59'0 0.0
2018-Jul-14 05:30N 53°33' E 009°59'0 0.0
2018-Jul-14 05:00N 53°33' E 009°59'0 0.0
2018-Jul-14 04:30N 53°33' E 009°59'0 0.0
2018-Jul-14 04:00N 53°33' E 009°59'0 0.0
2018-Jul-14 03:30N 53°33' E 009°59'0 0.0
2018-Jul-14 03:00N 53°33' E 009°59'0 0.0
2018-Jul-14 02:30N 53°33' E 009°59'0 0.0
2018-Jul-14 02:00N 53°33' E 009°59'0 0.0
2018-Jul-14 01:30N 53°33' E 009°59'0 0.0
2018-Jul-14 01:00N 53°33' E 009°59'0 0.0
2018-Jul-14 00:30N 53°33' E 009°59'0 0.0
2018-Jul-14 00:00N 53°33' E 009°59'0 0.0
2018-Jul-13 23:30N 53°33' E 009°59'0 0.0
2018-Jul-13 23:00N 53°33' E 009°59'0 0.0
2018-Jul-13 22:30N 53°33' E 009°59'0 0.0
2018-Jul-13 22:00N 53°33' E 009°59'0 0.0
2018-Jul-13 21:30N 53°33' E 009°59'0 0.0
2018-Jul-13 21:00N 53°33' E 009°59'0 0.0
2018-Jul-13 20:30N 53°33' E 009°59'0 0.0
2018-Jul-13 20:00N 53°33' E 009°59'0 0.0
2018-Jul-13 19:30N 53°33' E 009°59'0 0.0
2018-Jul-13 19:00N 53°33' E 009°59'0 0.0
2018-Jul-13 18:30N 53°33' E 009°59'0 0.0
2018-Jul-13 18:00N 53°33' E 009°59'0 0.0
2018-Jul-13 17:30N 53°33' E 009°59'0 0.0
2018-Jul-13 17:00N 53°33' E 009°59'0 0.0
2018-Jul-13 16:27N 53°33' E 009°59'0 0.0
2018-Jul-13 16:00N 53°33' E 009°59'0 0.0
2018-Jul-13 15:30N 53°33' E 009°59'0 0.0
2018-Jul-13 15:00N 53°33' E 009°59'0 0.0
2018-Jul-13 14:30N 53°33' E 009°59'0 0.0
2018-Jul-13 13:30N 53°33' E 009°59'0 0.0
2018-Jul-13 13:00N 53°33' E 009°59'0 0.0
2018-Jul-13 12:30N 53°33' E 009°59'0 0.0
2018-Jul-13 12:00N 53°33' E 009°59'0 0.0
2018-Jul-13 11:30N 53°33' E 009°59'0 0.0
2018-Jul-13 11:00N 53°33' E 009°59'0 0.0
2018-Jul-13 10:30N 53°33' E 009°59'0 0.0
2018-Jul-13 10:00N 53°33' E 009°59'0 0.0
2018-Jul-13 09:30N 53°33' E 009°59'0 0.0
2018-Jul-13 09:00N 53°33' E 009°59'0 0.0
2018-Jul-13 08:30N 53°33' E 009°59'0 0.0
2018-Jul-13 08:00N 53°33' E 009°59'0 0.7
2018-Jul-13 07:30N 53°32' E 009°59'3 5.7
2018-Jul-13 07:01N 53°32' E 009°54'3 5.8
2018-Jul-13 06:30N 53°33' E 009°50'3 5.4
2018-Jul-13 06:00N 53°34' E 009°45'3 5.5
2018-Jul-13 05:30N 53°34' E 009°41'3 5.2
2018-Jul-13 05:00N 53°35' E 009°37'2 4.9
2018-Jul-13 04:31N 53°37' E 009°34'1 1.4
2018-Jul-13 04:00N 53°37' E 009°33'0 0.1
2018-Jul-13 03:30N 53°37' E 009°33'0 0.1
2018-Jul-13 03:00N 53°37' E 009°33'0 0.0
2018-Jul-13 02:30N 53°37' E 009°33'0 0.0
2018-Jul-13 02:00N 53°37' E 009°33'0 0.0
2018-Jul-13 01:30N 53°37' E 009°33'0 0.0
2018-Jul-13 01:00N 53°37' E 009°33'0 0.0
2018-Jul-13 00:30N 53°37' E 009°33'0 0.0
2018-Jul-13 00:00N 53°37' E 009°33'0 0.0
2018-Jul-12 23:30N 53°37' E 009°33'0 0.0
2018-Jul-12 23:00N 53°37' E 009°33'0 0.0
2018-Jul-12 22:30N 53°37' E 009°33'0 0.0
2018-Jul-12 22:00N 53°37' E 009°33'0 0.0
2018-Jul-12 21:30N 53°37' E 009°33'0 0.1
2018-Jul-12 21:00N 53°37' E 009°33'0 0.1
2018-Jul-12 20:30N 53°37' E 009°33'0 0.1
2018-Jul-12 20:00N 53°37' E 009°33'0 0.0
2018-Jul-12 19:30N 53°37' E 009°33'0 0.1
2018-Jul-12 19:00N 53°37' E 009°33'0 0.0
2018-Jul-12 18:30N 53°37' E 009°33'0 0.1
2018-Jul-12 18:00N 53°37' E 009°33'1 2.7
2018-Jul-12 17:30N 53°38' E 009°31'2 3.4
2018-Jul-12 17:00N 53°40' E 009°31'2 3.6
2018-Jul-12 16:30N 53°42' E 009°30'2 3.0
2018-Jul-12 16:00N 53°43' E 009°28'2 4.3
2018-Jul-12 15:30N 53°44' E 009°26'3 5.8
2018-Jul-12 15:00N 53°42' E 009°29'3 5.9
2018-Jul-12 14:30N 53°40' E 009°31'3 5.8
2018-Jul-12 14:00N 53°37' E 009°33'3 5.8
2018-Jul-12 13:30N 53°35' E 009°37'3 5.4
2018-Jul-12 13:00N 53°34' E 009°41'3 5.7
2018-Jul-12 12:30N 53°34' E 009°46'3 5.3
2018-Jul-12 12:00N 53°33' E 009°50'3 5.0
2018-Jul-12 11:30N 53°33' E 009°54'3 5.1
2018-Jul-12 11:00N 53°33' E 009°59'0 0.0
2018-Jul-12 10:28N 53°33' E 009°59'0 0.0
2018-Jul-12 09:58N 53°33' E 009°59'0 0.0
2018-Jul-12 09:28N 53°33' E 009°59'0 0.0
2018-Jul-12 08:58N 53°33' E 009°59'0 0.0
2018-Jul-12 08:28N 53°33' E 009°59'0 0.0
2018-Jul-12 07:58N 53°33' E 009°59'0 0.0
2018-Jul-12 07:28N 53°33' E 009°59'0 0.0
2018-Jul-12 06:58N 53°33' E 009°59'0 0.0
2018-Jul-12 06:28N 53°33' E 009°59'0 0.0
2018-Jul-12 05:58N 53°33' E 009°59'0 0.0
2018-Jul-12 05:28N 53°33' E 009°59'0 0.0
2018-Jul-12 04:58N 53°33' E 009°59'0 0.0
2018-Jul-12 04:28N 53°33' E 009°59'0 0.0
2018-Jul-12 03:58N 53°33' E 009°59'0 0.0
2018-Jul-12 03:28N 53°33' E 009°59'0 0.0
2018-Jul-12 02:58N 53°33' E 009°59'0 0.0
2018-Jul-12 02:28N 53°33' E 009°59'0 0.0
2018-Jul-12 01:58N 53°33' E 009°59'0 0.0
2018-Jul-12 01:28N 53°33' E 009°59'0 0.0
2018-Jul-12 00:58N 53°33' E 009°59'0 0.0
2018-Jul-12 00:28N 53°33' E 009°59'0 0.0
2018-Jul-11 23:58N 53°33' E 009°59'0 0.0
2018-Jul-11 23:28N 53°33' E 009°59'0 0.0
2018-Jul-11 22:58N 53°33' E 009°59'0 0.0
2018-Jul-11 22:28N 53°33' E 009°59'0 0.0
2018-Jul-11 21:58N 53°33' E 009°59'0 0.0
2018-Jul-11 21:28N 53°33' E 009°59'0 0.0
2018-Jul-11 20:58N 53°33' E 009°59'0 0.0
2018-Jul-11 20:28N 53°33' E 009°59'0 0.0
2018-Jul-11 19:58N 53°33' E 009°59'0 0.0
2018-Jul-11 19:28N 53°33' E 009°59'0 0.0
2018-Jul-11 18:58N 53°33' E 009°59'0 0.0
2018-Jul-11 18:28N 53°33' E 009°59'0 0.0
2018-Jul-11 17:58N 53°33' E 009°59'0 0.0
2018-Jul-11 17:28N 53°33' E 009°59'0 0.0
2018-Jul-11 16:58N 53°33' E 009°59'0 0.0
2018-Jul-11 16:28N 53°33' E 009°59'0 0.0
2018-Jul-11 15:55N 53°33' E 009°59'0 0.0
2018-Jul-11 15:28N 53°33' E 009°59'0 0.0
2018-Jul-11 14:58N 53°33' E 009°59'0 0.0
2018-Jul-11 14:28N 53°33' E 009°59'0 0.0
2018-Jul-11 13:58N 53°33' E 009°59'0 0.0
2018-Jul-11 13:28N 53°33' E 009°59'0 0.0
2018-Jul-11 12:58N 53°33' E 009°59'0 0.0
2018-Jul-11 12:28N 53°33' E 009°59'  
Track history (hours):
 
Tides and Currents Weather Stations Pressure Air Temp Water Temp Dewpoint Dewpoint Depression Visibility Wind Speed Wind Dir Waves Ship Positions

Stad Amsterdam (Netherlands)

Ship's website: http://www.stadamsterdam.com/content/home/index.xml

Last reported at 2018-Jul-21 12:11 UTC. Time now 2018-Jul-22 07:06 UTC.
Position N 54°03' E 010°59'.

Length 76 m; beam 10 m.

Type: Sailing vessel. MMSI: 246494000.

Date/timePositionNaut miles runAvg speedWind from/ knotsBaromVisibWave heightAir tempDewpointWater temp
2018-Jul-21 12:11N 54°03' E 010°59'1 3.1
2018-Jul-21 11:51N 54°04' E 010°59'25 0.6
2018-Jul-19 21:01N 54°25' E 011°21'0 5.9
2018-Jul-19 21:00N 54°25' E 011°21'4 7.2
2018-Jul-19 20:30N 54°29' E 011°21'4 8.3
2018-Jul-19 20:00N 54°32' E 011°18'3 5.7
2018-Jul-19 19:30N 54°34' E 011°14'3 5.2
2018-Jul-19 19:00N 54°35' E 011°10'3 6.1
2018-Jul-19 18:30N 54°36' E 011°05'3 6.4
2018-Jul-19 18:00N 54°38' E 011°01'4 8.2
2018-Jul-19 17:30N 54°42' E 010°57'4 8.4
2018-Jul-19 17:00N 54°45' E 010°54'4 8.6
2018-Jul-19 16:30N 54°50' E 010°53'2 3.8
2018-Jul-19 16:00N 54°52' E 010°54'1 1.2
2018-Jul-19 15:30N 54°52' E 010°54'2 3.8
2018-Jul-19 15:00N 54°54' E 010°55'3 5.2
2018-Jul-19 14:30N 54°57' E 010°55'5 4.6
2018-Jul-19 13:30N 55°01' E 010°57'77 6.3
2018-Jul-19 01:14N 56°18' E 011°00'2 9.4
2018-Jul-19 00:59N 56°21' E 011°01'25 9.6
2018-Jul-18 22:25N 56°45' E 010°56'36 9.5
2018-Jul-18 18:41N 57°20' E 010°43'1811.2
2018-Jul-18 17:04N 57°38' E 010°44'111.9
2018-Jul-18 17:00N 57°39' E 010°44'611.1
2018-Jul-18 16:25N 57°45' E 010°44'3 6.8
2018-Jul-18 15:59N 57°46' E 010°39'6 7.8
2018-Jul-18 15:15N 57°46' E 010°28'3 6.7
2018-Jul-18 14:51N 57°46' E 010°23'2 5.6
2018-Jul-18 14:27N 57°45' E 010°19'8 5.8
2018-Jul-18 13:06N 57°44' E 010°05'65 3.3
2018-Jul-17 17:04N 57°17' E 008°14'0 1.5
2018-Jul-17 17:00N 57°17' E 008°14'1 0.9
2018-Jul-17 15:59N 57°16' E 008°15'1 1.1
2018-Jul-17 15:21N 57°16' E 008°17'179 4.5
2018-Jul-15 23:54N 54°19' E 007°34'2 4.0
2018-Jul-15 23:25N 54°17' E 007°34'2 3.8
2018-Jul-15 23:00N 54°16' E 007°35'2 3.5
2018-Jul-15 22:27N 54°14' E 007°35'2 4.4
2018-Jul-15 21:58N 54°12' E 007°36'2 5.0
2018-Jul-15 21:30N 54°09' E 007°37'3 5.3
2018-Jul-15 21:00N 54°07' E 007°39'3 6.0
2018-Jul-15 20:27N 54°05' E 007°43'3 6.5
2018-Jul-15 20:00N 54°04' E 007°48'3 6.4
2018-Jul-15 19:30N 54°03' E 007°53'4 7.2
2018-Jul-15 19:00N 54°02' E 007°59'4 8.4
2018-Jul-15 18:30N 54°01' E 008°06'5 9.7
2018-Jul-15 18:00N 54°01' E 008°14'5 9.6
2018-Jul-15 17:26N 53°60' E 008°23'7 9.9
2018-Jul-15 16:46N 53°58' E 008°34'3 9.6
2018-Jul-15 16:29N 53°57' E 008°38'4 8.3
2018-Jul-15 16:00N 53°54' E 008°42'4 7.2
2018-Jul-15 15:30N 53°51' E 008°46'3 6.3
2018-Jul-15 15:00N 53°50' E 008°51'3 6.1
2018-Jul-15 14:31N 53°51' E 008°56'3 5.1
2018-Jul-15 14:01N 53°51' E 009°00'3 5.8
2018-Jul-15 13:30N 53°53' E 009°05'3 5.6
2018-Jul-15 13:00N 53°53' E 009°10'2 4.6
2018-Jul-15 12:30N 53°53' E 009°14'3 5.1
2018-Jul-15 12:00N 53°52' E 009°18'3 5.5
2018-Jul-15 11:30N 53°50' E 009°21'3 6.5
2018-Jul-15 11:00N 53°47' E 009°23'4 8.3
2018-Jul-15 10:30N 53°44' E 009°27'4 9.0
2018-Jul-15 10:00N 53°40' E 009°31'5 9.1
2018-Jul-15 09:30N 53°36' E 009°35'4 8.9
2018-Jul-15 09:00N 53°34' E 009°42'4 9.0
2018-Jul-15 08:30N 53°33' E 009°49'5 9.0
2018-Jul-15 08:00N 53°33' E 009°57'1 2.3
2018-Jul-15 07:30N 53°33' E 009°59'0 0.0
2018-Jul-15 07:00N 53°33' E 009°59'0 0.0
2018-Jul-15 06:28N 53°33' E 009°59'0 0.0
2018-Jul-15 05:57N 53°33' E 009°59'0 0.0
2018-Jul-15 05:31N 53°33' E 009°59'0 0.0
2018-Jul-15 05:01N 53°33' E 009°59'0 0.0
2018-Jul-15 04:30N 53°33' E 009°59'0 0.0
2018-Jul-15 04:00N 53°33' E 009°59'0 0.0
2018-Jul-15 03:30N 53°33' E 009°59'0 0.0
2018-Jul-15 02:57N 53°33' E 009°59'0 0.0
2018-Jul-15 02:30N 53°33' E 009°59'0 0.0
2018-Jul-15 02:00N 53°33' E 009°59'0 0.0
2018-Jul-15 01:31N 53°33' E 009°59'0 0.0
2018-Jul-15 00:57N 53°33' E 009°59'0 0.0
2018-Jul-15 00:30N 53°33' E 009°59'0 0.0
2018-Jul-14 23:57N 53°33' E 009°59'0 0.0
2018-Jul-14 23:30N 53°33' E 009°59'0 0.0
2018-Jul-14 23:00N 53°33' E 009°59'0 0.0
2018-Jul-14 22:30N 53°33' E 009°59'0 0.0
2018-Jul-14 21:57N 53°33' E 009°59'0 0.0
2018-Jul-14 21:30N 53°33' E 009°59'0 0.0
2018-Jul-14 21:00N 53°33' E 009°59'0 0.0
2018-Jul-14 20:30N 53°33' E 009°59'0 0.0
2018-Jul-14 20:00N 53°33' E 009°59'0 0.0
2018-Jul-14 19:27N 53°33' E 009°59'0 0.0
2018-Jul-14 19:00N 53°33' E 009°59'0 0.0
2018-Jul-14 18:30N 53°33' E 009°59'0 0.0
2018-Jul-14 18:00N 53°33' E 009°59'0 0.0
2018-Jul-14 17:30N 53°33' E 009°59'0 0.0
2018-Jul-14 17:01N 53°33' E 009°59'0 0.0
2018-Jul-14 16:30N 53°33' E 009°59'0 0.0
2018-Jul-14 16:00N 53°33' E 009°59'0 0.0
2018-Jul-14 15:30N 53°33' E 009°59'0 0.0
2018-Jul-14 15:00N 53°33' E 009°59'0 0.0
2018-Jul-14 14:30N 53°33' E 009°59'0 0.0
2018-Jul-14 13:30N 53°33' E 009°59'0 0.0
2018-Jul-14 13:00N 53°33' E 009°59'0 0.0
2018-Jul-14 12:30N 53°33' E 009°59'0 0.0
2018-Jul-14 12:00N 53°33' E 009°59'0 0.0
2018-Jul-14 11:30N 53°33' E 009°59'0 0.0
2018-Jul-14 11:00N 53°33' E 009°59'0 0.0
2018-Jul-14 10:30N 53°33' E 009°59'0 0.0
2018-Jul-14 10:00N 53°33' E 009°59'0 0.0
2018-Jul-14 09:30N 53°33' E 009°59'0 0.0
2018-Jul-14 09:00N 53°33' E 009°59'0 0.0
2018-Jul-14 08:30N 53°33' E 009°59'0 0.0
2018-Jul-14 08:00N 53°33' E 009°59'0 0.0
2018-Jul-14 07:30N 53°33' E 009°59'0 0.0
2018-Jul-14 07:00N 53°33' E 009°59'0 0.0
2018-Jul-14 06:30N 53°33' E 009°59'0 0.0
2018-Jul-14 06:00N 53°33' E 009°59'0 0.0
2018-Jul-14 05:30N 53°33' E 009°59'0 0.0
2018-Jul-14 05:00N 53°33' E 009°59'0 0.0
2018-Jul-14 04:30N 53°33' E 009°59'0 0.0
2018-Jul-14 04:00N 53°33' E 009°59'0 0.0
2018-Jul-14 03:30N 53°33' E 009°59'0 0.0
2018-Jul-14 03:00N 53°33' E 009°59'0 0.0
2018-Jul-14 02:30N 53°33' E 009°59'0 0.0
2018-Jul-14 02:00N 53°33' E 009°59'0 0.0
2018-Jul-14 01:30N 53°33' E 009°59'0 0.0
2018-Jul-14 01:00N 53°33' E 009°59'0 0.0
2018-Jul-14 00:30N 53°33' E 009°59'0 0.0
2018-Jul-14 00:00N 53°33' E 009°59'0 0.0
2018-Jul-13 23:30N 53°33' E 009°59'0 0.0
2018-Jul-13 23:00N 53°33' E 009°59'0 0.0
2018-Jul-13 22:30N 53°33' E 009°59'0 0.0
2018-Jul-13 22:00N 53°33' E 009°59'0 0.0
2018-Jul-13 21:30N 53°33' E 009°59'0 0.0
2018-Jul-13 21:00N 53°33' E 009°59'0 0.0
2018-Jul-13 20:30N 53°33' E 009°59'0 0.0
2018-Jul-13 20:00N 53°33' E 009°59'0 0.0
2018-Jul-13 19:30N 53°33' E 009°59'0 0.0
2018-Jul-13 19:00N 53°33' E 009°59'0 0.0
2018-Jul-13 18:30N 53°33' E 009°59'0 0.0
2018-Jul-13 18:00N 53°33' E 009°59'0 0.0
2018-Jul-13 17:30N 53°33' E 009°59'0 0.0
2018-Jul-13 17:00N 53°33' E 009°59'0 0.0
2018-Jul-13 16:27N 53°33' E 009°59'0 0.0
2018-Jul-13 16:00N 53°33' E 009°59'0 0.0
2018-Jul-13 15:30N 53°33' E 009°59'0 0.0
2018-Jul-13 15:00N 53°33' E 009°59'0 0.0
2018-Jul-13 14:30N 53°33' E 009°59'0 0.0
2018-Jul-13 13:30N 53°33' E 009°59'0 0.0
2018-Jul-13 13:00N 53°33' E 009°59'0 0.0
2018-Jul-13 12:30N 53°33' E 009°59'0 0.0
2018-Jul-13 12:00N 53°33' E 009°59'0 0.0
2018-Jul-13 11:30N 53°33' E 009°59'0 0.0
2018-Jul-13 11:00N 53°33' E 009°59'0 0.0
2018-Jul-13 10:30N 53°33' E 009°59'0 0.0
2018-Jul-13 10:00N 53°33' E 009°59'0 0.0
2018-Jul-13 09:30N 53°33' E 009°59'0 0.0
2018-Jul-13 09:00N 53°33' E 009°59'0 0.0
2018-Jul-13 08:30N 53°33' E 009°59'0 0.0
2018-Jul-13 08:00N 53°33' E 009°59'0 0.7
2018-Jul-13 07:30N 53°32' E 009°59'3 5.7
2018-Jul-13 07:01N 53°32' E 009°54'3 5.8
2018-Jul-13 06:30N 53°33' E 009°50'3 5.4
2018-Jul-13 06:00N 53°34' E 009°45'3 5.5
2018-Jul-13 05:30N 53°34' E 009°41'3 5.2
2018-Jul-13 05:00N 53°35' E 009°37'2 4.9
2018-Jul-13 04:31N 53°37' E 009°34'1 1.4
2018-Jul-13 04:00N 53°37' E 009°33'0 0.1
2018-Jul-13 03:30N 53°37' E 009°33'0 0.1
2018-Jul-13 03:00N 53°37' E 009°33'0 0.0
2018-Jul-13 02:30N 53°37' E 009°33'0 0.0
2018-Jul-13 02:00N 53°37' E 009°33'0 0.0
2018-Jul-13 01:30N 53°37' E 009°33'0 0.0
2018-Jul-13 01:00N 53°37' E 009°33'0 0.0
2018-Jul-13 00:30N 53°37' E 009°33'0 0.0
2018-Jul-13 00:00N 53°37' E 009°33'0 0.0
2018-Jul-12 23:30N 53°37' E 009°33'0 0.0
2018-Jul-12 23:00N 53°37' E 009°33'0 0.0
2018-Jul-12 22:30N 53°37' E 009°33'0 0.0
2018-Jul-12 22:00N 53°37' E 009°33'0 0.0
2018-Jul-12 21:30N 53°37' E 009°33'0 0.1
2018-Jul-12 21:00N 53°37' E 009°33'0 0.1
2018-Jul-12 20:30N 53°37' E 009°33'0 0.1
2018-Jul-12 20:00N 53°37' E 009°33'0 0.0
2018-Jul-12 19:30N 53°37' E 009°33'0 0.1
2018-Jul-12 19:00N 53°37' E 009°33'0 0.0
2018-Jul-12 18:30N 53°37' E 009°33'0 0.1
2018-Jul-12 18:00N 53°37' E 009°33'1 2.7
2018-Jul-12 17:30N 53°38' E 009°31'2 3.4
2018-Jul-12 17:00N 53°40' E 009°31'2 3.6
2018-Jul-12 16:30N 53°42' E 009°30'2 3.0
2018-Jul-12 16:00N 53°43' E 009°28'2 4.3
2018-Jul-12 15:30N 53°44' E 009°26'3 5.8
2018-Jul-12 15:00N 53°42' E 009°29'3 5.9
2018-Jul-12 14:30N 53°40' E 009°31'3 5.8
2018-Jul-12 14:00N 53°37' E 009°33'3 5.8
2018-Jul-12 13:30N 53°35' E 009°37'3 5.4
2018-Jul-12 13:00N 53°34' E 009°41'3 5.7
2018-Jul-12 12:30N 53°34' E 009°46'3 5.3
2018-Jul-12 12:00N 53°33' E 009°50'3 5.0
2018-Jul-12 11:30N 53°33' E 009°54'3 5.1
2018-Jul-12 11:00N 53°33' E 009°59'0 0.0
2018-Jul-12 10:28N 53°33' E 009°59'0 0.0
2018-Jul-12 09:58N 53°33' E 009°59'0 0.0
2018-Jul-12 09:28N 53°33' E 009°59'0 0.0
2018-Jul-12 08:58N 53°33' E 009°59'0 0.0
2018-Jul-12 08:28N 53°33' E 009°59'0 0.0
2018-Jul-12 07:58N 53°33' E 009°59'0 0.0
2018-Jul-12 07:28N 53°33' E 009°59'0 0.0
2018-Jul-12 06:58N 53°33' E 009°59'0 0.0
2018-Jul-12 06:28N 53°33' E 009°59'0 0.0
2018-Jul-12 05:58N 53°33' E 009°59'0 0.0
2018-Jul-12 05:28N 53°33' E 009°59'0 0.0
2018-Jul-12 04:58N 53°33' E 009°59'0 0.0
2018-Jul-12 04:28N 53°33' E 009°59'0 0.0
2018-Jul-12 03:58N 53°33' E 009°59'0 0.0
2018-Jul-12 03:28N 53°33' E 009°59'0 0.0
2018-Jul-12 02:58N 53°33' E 009°59'0 0.0
2018-Jul-12 02:28N 53°33' E 009°59'0 0.0
2018-Jul-12 01:58N 53°33' E 009°59'0 0.0
2018-Jul-12 01:28N 53°33' E 009°59'0 0.0
2018-Jul-12 00:58N 53°33' E 009°59'0 0.0
2018-Jul-12 00:28N 53°33' E 009°59'0 0.0
2018-Jul-11 23:58N 53°33' E 009°59'0 0.0
2018-Jul-11 23:28N 53°33' E 009°59'0 0.0
2018-Jul-11 22:58N 53°33' E 009°59'0 0.0
2018-Jul-11 22:28N 53°33' E 009°59'0 0.0
2018-Jul-11 21:58N 53°33' E 009°59'0 0.0
2018-Jul-11 21:28N 53°33' E 009°59'0 0.0
2018-Jul-11 20:58N 53°33' E 009°59'0 0.0
2018-Jul-11 20:28N 53°33' E 009°59'0 0.0
2018-Jul-11 19:58N 53°33' E 009°59'0 0.0
2018-Jul-11 19:28N 53°33' E 009°59'0 0.0
2018-Jul-11 18:58N 53°33' E 009°59'0 0.0
2018-Jul-11 18:28N 53°33' E 009°59'0 0.0
2018-Jul-11 17:58N 53°33' E 009°59'0 0.0
2018-Jul-11 17:28N 53°33' E 009°59'0 0.0
2018-Jul-11 16:58N 53°33' E 009°59'0 0.0
2018-Jul-11 16:28N 53°33' E 009°59'0 0.0
2018-Jul-11 15:55N 53°33' E 009°59'0 0.0
2018-Jul-11 15:28N 53°33' E 009°59'0 0.0
2018-Jul-11 14:58N 53°33' E 009°59'0 0.0
2018-Jul-11 14:28N 53°33' E 009°59'0 0.0
2018-Jul-11 13:58N 53°33' E 009°59'0 0.0
2018-Jul-11 13:28N 53°33' E 009°59'0 0.0
2018-Jul-11 12:58N 53°33' E 009°59'0 0.0
2018-Jul-11 12:28N 53°33' E 009°59'  

Dump ship's entire track history